Terminal Aerodrome Forecast
Issued by NWS

Home | Current Version | Previous Version | Text Only | Print | Product List | Glossary On
Versions: 1 2 3 4 5 6 7 8 9 10 11 12 13 14 15 16 17 18 19 20 21 22 23 24 25 26 27
483
FTUS41 KOKX 282340
TAFGON
TAF
KGON 282340Z 2900/2924 18008KT P6SM FEW250
     FM290700 21006KT P6SM SCT250
     FM290900 23005KT P6SM SCT050 BKN250
     FM291600 27009KT P6SM FEW220 SCT250=

USA.gov is the U.S. government's official web portal to all federal, state and local government web resources and services.